sensor_id;sensor_type;location;lat;lon;timestamp;temperature;humidity
12315;DHT22;23886;46.614;14.276;2023-04-10T00:01:14;4.20;99.90
12315;DHT22;23886;46.614;14.276;2023-04-10T00:03:41;4.30;99.90
12315;DHT22;23886;46.614;14.276;2023-04-10T00:06:10;4.30;99.90
12315;DHT22;23886;46.614;14.276;2023-04-10T00:08:37;4.20;99.90
12315;DHT22;23886;46.614;14.276;2023-04-10T00:11:04;4.10;99.90
12315;DHT22;23886;46.614;14.276;2023-04-10T00:13:31;4.00;99.90
12315;DHT22;23886;46.614;14.276;2023-04-10T00:15:58;4.00;99.90
12315;DHT22;23886;46.614;14.276;2023-04-10T00:18:25;4.00;99.90
12315;DHT22;23886;46.614;14.276;2023-04-10T00:20:53;4.10;99.90
12315;DHT22;23886;46.614;14.276;2023-04-10T00:23:22;4.10;99.90
12315;DHT22;23886;46.614;14.276;2023-04-10T00:25:49;4.20;99.90
12315;DHT22;23886;46.614;14.276;2023-04-10T00:28:16;4.20;99.90
12315;DHT22;23886;46.614;14.276;2023-04-10T00:30:42;4.10;99.90
12315;DHT22;23886;46.614;14.276;2023-04-10T00:33:10;4.10;99.90
12315;DHT22;23886;46.614;14.276;2023-04-10T00:35:37;4.00;99.90
12315;DHT22;23886;46.614;14.276;2023-04-10T00:38:04;4.00;99.90
12315;DHT22;23886;46.614;14.276;2023-04-10T00:40:32;4.00;99.90
12315;DHT22;23886;46.614;14.276;2023-04-10T00:42:59;4.00;99.90
12315;DHT22;23886;46.614;14.276;2023-04-10T00:45:26;4.00;99.90
12315;DHT22;23886;46.614;14.276;2023-04-10T00:47:54;4.00;99.90
12315;DHT22;23886;46.614;14.276;2023-04-10T00:50:21;3.90;99.90
12315;DHT22;23886;46.614;14.276;2023-04-10T00:52:49;3.90;99.90
12315;DHT22;23886;46.614;14.276;2023-04-10T00:55:16;3.90;99.90
12315;DHT22;23886;46.614;14.276;2023-04-10T00:57:45;4.00;99.90
12315;DHT22;23886;46.614;14.276;2023-04-10T01:00:13;4.00;99.90
12315;DHT22;23886;46.614;14.276;2023-04-10T01:02:40;4.10;99.90
12315;DHT22;23886;46.614;14.276;2023-04-10T01:05:08;4.00;99.90
12315;DHT22;23886;46.614;14.276;2023-04-10T01:07:48;4.00;99.90
12315;DHT22;23886;46.614;14.276;2023-04-10T01:10:26;4.00;99.90
12315;DHT22;23886;46.614;14.276;2023-04-10T01:13:02;3.90;99.90
12315;DHT22;23886;46.614;14.276;2023-04-10T01:15:40;3.90;99.90
12315;DHT22;23886;46.614;14.276;2023-04-10T01:18:21;3.90;99.90
12315;DHT22;23886;46.614;14.276;2023-04-10T01:20:50;4.00;99.90
12315;DHT22;23886;46.614;14.276;2023-04-10T01:23:43;4.00;99.90
12315;DHT22;23886;46.614;14.276;2023-04-10T01:26:14;4.10;99.90
12315;DHT22;23886;46.614;14.276;2023-04-10T01:28:56;4.10;99.90
12315;DHT22;23886;46.614;14.276;2023-04-10T01:31:31;4.10;99.90
12315;DHT22;23886;46.614;14.276;2023-04-10T01:34:04;4.00;99.90
12315;DHT22;23886;46.614;14.276;2023-04-10T01:36:35;4.10;99.90
12315;DHT22;23886;46.614;14.276;2023-04-10T01:39:03;4.00;99.90
12315;DHT22;23886;46.614;14.276;2023-04-10T01:41:32;4.10;99.90
12315;DHT22;23886;46.614;14.276;2023-04-10T01:44:02;4.10;99.90
12315;DHT22;23886;46.614;14.276;2023-04-10T01:46:30;4.10;99.90
12315;DHT22;23886;46.614;14.276;2023-04-10T01:49:00;4.10;99.90
12315;DHT22;23886;46.614;14.276;2023-04-10T01:51:29;4.00;99.90
12315;DHT22;23886;46.614;14.276;2023-04-10T01:53:58;3.90;99.90
12315;DHT22;23886;46.614;14.276;2023-04-10T01:56:27;3.90;99.90
12315;DHT22;23886;46.614;14.276;2023-04-10T01:58:55;3.90;99.90
12315;DHT22;23886;46.614;14.276;2023-04-10T02:01:23;3.90;99.90
12315;DHT22;23886;46.614;14.276;2023-04-10T02:03:51;3.80;99.90
12315;DHT22;23886;46.614;14.276;2023-04-10T02:06:24;3.90;99.90
12315;DHT22;23886;46.614;14.276;2023-04-10T02:08:57;3.90;99.90
12315;DHT22;23886;46.614;14.276;2023-04-10T02:11:33;3.80;99.90
12315;DHT22;23886;46.614;14.276;2023-04-10T02:14:04;3.80;99.90
12315;DHT22;23886;46.614;14.276;2023-04-10T02:16:36;3.80;99.90
12315;DHT22;23886;46.614;14.276;2023-04-10T02:19:04;3.80;99.90
12315;DHT22;23886;46.614;14.276;2023-04-10T02:21:32;3.90;99.90
12315;DHT22;23886;46.614;14.276;2023-04-10T02:24:00;3.90;99.90
12315;DHT22;23886;46.614;14.276;2023-04-10T02:26:27;3.90;99.90
12315;DHT22;23886;46.614;14.276;2023-04-10T02:28:54;3.90;99.90
12315;DHT22;23886;46.614;14.276;2023-04-10T02:31:21;3.90;99.90
12315;DHT22;23886;46.614;14.276;2023-04-10T02:33:49;4.00;99.90
12315;DHT22;23886;46.614;14.276;2023-04-10T02:36:16;4.10;99.90
12315;DHT22;23886;46.614;14.276;2023-04-10T02:38:43;4.10;99.90
12315;DHT22;23886;46.614;14.276;2023-04-10T02:41:10;4.20;99.90
12315;DHT22;23886;46.614;14.276;2023-04-10T02:43:37;4.20;99.90
12315;DHT22;23886;46.614;14.276;2023-04-10T02:46:05;4.00;99.90
12315;DHT22;23886;46.614;14.276;2023-04-10T02:48:32;3.90;99.90
12315;DHT22;23886;46.614;14.276;2023-04-10T02:51:00;3.80;99.90
12315;DHT22;23886;46.614;14.276;2023-04-10T02:53:28;3.70;99.90
12315;DHT22;23886;46.614;14.276;2023-04-10T02:55:55;3.70;99.90
12315;DHT22;23886;46.614;14.276;2023-04-10T02:58:22;3.70;99.90
12315;DHT22;23886;46.614;14.276;2023-04-10T03:00:50;3.80;99.90
12315;DHT22;23886;46.614;14.276;2023-04-10T03:03:17;3.80;99.90
12315;DHT22;23886;46.614;14.276;2023-04-10T03:05:45;3.80;99.90
12315;DHT22;23886;46.614;14.276;2023-04-10T03:08:15;3.90;99.90
12315;DHT22;23886;46.614;14.276;2023-04-10T03:10:43;3.80;99.90
12315;DHT22;23886;46.614;14.276;2023-04-10T03:13:11;3.80;99.90
12315;DHT22;23886;46.614;14.276;2023-04-10T03:15:37;3.80;99.90
12315;DHT22;23886;46.614;14.276;2023-04-10T03:18:05;3.90;99.90
12315;DHT22;23886;46.614;14.276;2023-04-10T03:20:32;3.90;99.90
12315;DHT22;23886;46.614;14.276;2023-04-10T03:22:59;4.10;99.90
12315;DHT22;23886;46.614;14.276;2023-04-10T03:25:27;4.00;99.90
12315;DHT22;23886;46.614;14.276;2023-04-10T03:27:56;4.20;99.90
12315;DHT22;23886;46.614;14.276;2023-04-10T03:30:23;4.10;99.90
12315;DHT22;23886;46.614;14.276;2023-04-10T03:32:50;4.10;99.90
12315;DHT22;23886;46.614;14.276;2023-04-10T03:35:17;4.00;99.90
12315;DHT22;23886;46.614;14.276;2023-04-10T03:37:44;3.90;99.90
12315;DHT22;23886;46.614;14.276;2023-04-10T03:40:11;3.90;99.90
12315;DHT22;23886;46.614;14.276;2023-04-10T03:42:40;3.90;99.90
12315;DHT22;23886;46.614;14.276;2023-04-10T03:45:07;4.00;99.90
12315;DHT22;23886;46.614;14.276;2023-04-10T03:47:35;3.90;99.90
12315;DHT22;23886;46.614;14.276;2023-04-10T03:50:02;3.90;99.90
12315;DHT22;23886;46.614;14.276;2023-04-10T03:52:30;4.10;99.90
12315;DHT22;23886;46.614;14.276;2023-04-10T03:54:57;4.10;99.90
12315;DHT22;23886;46.614;14.276;2023-04-10T03:57:24;4.20;99.90
12315;DHT22;23886;46.614;14.276;2023-04-10T03:59:52;4.30;99.90
12315;DHT22;23886;46.614;14.276;2023-04-10T04:02:19;4.30;99.90
12315;DHT22;23886;46.614;14.276;2023-04-10T04:04:46;4.20;99.90
12315;DHT22;23886;46.614;14.276;2023-04-10T04:07:13;4.20;99.90
12315;DHT22;23886;46.614;14.276;2023-04-10T04:09:40;4.10;99.90
12315;DHT22;23886;46.614;14.276;2023-04-10T04:12:07;4.10;99.90
12315;DHT22;23886;46.614;14.276;2023-04-10T04:14:34;4.10;99.90
12315;DHT22;23886;46.614;14.276;2023-04-10T04:17:03;4.10;99.90
12315;DHT22;23886;46.614;14.276;2023-04-10T04:19:30;4.30;99.90
12315;DHT22;23886;46.614;14.276;2023-04-10T04:21:57;4.10;99.90
12315;DHT22;23886;46.614;14.276;2023-04-10T04:24:24;4.00;99.90
12315;DHT22;23886;46.614;14.276;2023-04-10T04:26:52;4.00;99.90
12315;DHT22;23886;46.614;14.276;2023-04-10T04:29:19;3.90;99.90
12315;DHT22;23886;46.614;14.276;2023-04-10T04:31:46;3.90;99.90
12315;DHT22;23886;46.614;14.276;2023-04-10T04:34:14;4.00;99.90
12315;DHT22;23886;46.614;14.276;2023-04-10T04:36:42;4.10;99.90
12315;DHT22;23886;46.614;14.276;2023-04-10T04:39:09;4.20;99.90
12315;DHT22;23886;46.614;14.276;2023-04-10T04:41:36;4.20;99.90
12315;DHT22;23886;46.614;14.276;2023-04-10T04:44:04;4.00;99.90
12315;DHT22;23886;46.614;14.276;2023-04-10T04:46:31;4.00;99.90
12315;DHT22;23886;46.614;14.276;2023-04-10T04:48:58;4.00;99.90
12315;DHT22;23886;46.614;14.276;2023-04-10T04:51:26;4.00;99.90
12315;DHT22;23886;46.614;14.276;2023-04-10T04:53:53;4.00;99.90
12315;DHT22;23886;46.614;14.276;2023-04-10T04:56:20;4.00;99.90
12315;DHT22;23886;46.614;14.276;2023-04-10T04:58:47;4.00;99.90
12315;DHT22;23886;46.614;14.276;2023-04-10T05:01:14;4.10;99.90
12315;DHT22;23886;46.614;14.276;2023-04-10T05:03:41;4.10;99.90
12315;DHT22;23886;46.614;14.276;2023-04-10T05:06:08;4.10;99.90
12315;DHT22;23886;46.614;14.276;2023-04-10T05:08:37;4.10;99.90
12315;DHT22;23886;46.614;14.276;2023-04-10T05:11:04;4.10;99.90
12315;DHT22;23886;46.614;14.276;2023-04-10T05:13:31;4.20;99.90
12315;DHT22;23886;46.614;14.276;2023-04-10T05:15:58;4.20;99.90
12315;DHT22;23886;46.614;14.276;2023-04-10T05:18:25;4.30;99.90
12315;DHT22;23886;46.614;14.276;2023-04-10T05:20:52;4.40;99.90
12315;DHT22;23886;46.614;14.276;2023-04-10T05:23:19;4.40;99.90
12315;DHT22;23886;46.614;14.276;2023-04-10T05:25:47;4.40;99.90
12315;DHT22;23886;46.614;14.276;2023-04-10T05:28:15;4.50;99.90
12315;DHT22;23886;46.614;14.276;2023-04-10T05:30:42;4.60;99.90
12315;DHT22;23886;46.614;14.276;2023-04-10T05:33:09;4.60;99.90
12315;DHT22;23886;46.614;14.276;2023-04-10T05:35:36;4.40;99.90
12315;DHT22;23886;46.614;14.276;2023-04-10T05:38:03;4.40;99.90
12315;DHT22;23886;46.614;14.276;2023-04-10T05:40:30;4.40;99.90
12315;DHT22;23886;46.614;14.276;2023-04-10T05:42:58;4.50;99.90
12315;DHT22;23886;46.614;14.276;2023-04-10T05:45:25;4.50;99.90
12315;DHT22;23886;46.614;14.276;2023-04-10T05:47:53;4.60;99.90
12315;DHT22;23886;46.614;14.276;2023-04-10T05:50:20;4.50;99.90
12315;DHT22;23886;46.614;14.276;2023-04-10T05:52:47;4.80;99.90
12315;DHT22;23886;46.614;14.276;2023-04-10T05:55:14;4.90;99.90
12315;DHT22;23886;46.614;14.276;2023-04-10T05:57:41;4.90;99.90
12315;DHT22;23886;46.614;14.276;2023-04-10T06:00:10;4.90;99.90
12315;DHT22;23886;46.614;14.276;2023-04-10T06:02:38;4.90;99.90
12315;DHT22;23886;46.614;14.276;2023-04-10T06:05:06;5.00;99.90
12315;DHT22;23886;46.614;14.276;2023-04-10T06:07:33;5.10;99.90
12315;DHT22;23886;46.614;14.276;2023-04-10T06:10:00;5.20;99.90
12315;DHT22;23886;46.614;14.276;2023-04-10T06:12:27;5.20;99.90
12315;DHT22;23886;46.614;14.276;2023-04-10T06:14:54;5.20;99.90
12315;DHT22;23886;46.614;14.276;2023-04-10T06:17:26;5.40;99.90
12315;DHT22;23886;46.614;14.276;2023-04-10T06:19:53;5.50;99.90
12315;DHT22;23886;46.614;14.276;2023-04-10T06:22:21;5.60;99.90
12315;DHT22;23886;46.614;14.276;2023-04-10T06:24:48;5.80;99.90
12315;DHT22;23886;46.614;14.276;2023-04-10T06:27:15;5.90;99.90
12315;DHT22;23886;46.614;14.276;2023-04-10T06:29:42;5.90;99.90
12315;DHT22;23886;46.614;14.276;2023-04-10T06:32:09;5.50;99.90
12315;DHT22;23886;46.614;14.276;2023-04-10T06:34:37;5.20;99.90
12315;DHT22;23886;46.614;14.276;2023-04-10T06:37:04;4.90;99.90
12315;DHT22;23886;46.614;14.276;2023-04-10T06:39:31;5.10;99.90
12315;DHT22;23886;46.614;14.276;2023-04-10T06:41:58;5.40;99.90
12315;DHT22;23886;46.614;14.276;2023-04-10T06:44:26;5.30;99.90
12315;DHT22;23886;46.614;14.276;2023-04-10T06:46:53;5.00;99.90
12315;DHT22;23886;46.614;14.276;2023-04-10T06:49:20;5.10;99.90
12315;DHT22;23886;46.614;14.276;2023-04-10T06:51:49;5.00;99.90
12315;DHT22;23886;46.614;14.276;2023-04-10T06:54:16;5.10;99.90
12315;DHT22;23886;46.614;14.276;2023-04-10T06:56:43;5.10;99.90
12315;DHT22;23886;46.614;14.276;2023-04-10T06:59:10;4.90;99.90
12315;DHT22;23886;46.614;14.276;2023-04-10T07:01:36;4.80;99.90
12315;DHT22;23886;46.614;14.276;2023-04-10T07:04:04;4.90;99.90
12315;DHT22;23886;46.614;14.276;2023-04-10T07:06:31;5.00;99.90
12315;DHT22;23886;46.614;14.276;2023-04-10T07:08:59;4.80;99.90
12315;DHT22;23886;46.614;14.276;2023-04-10T07:11:26;5.80;99.90
12315;DHT22;23886;46.614;14.276;2023-04-10T07:13:53;5.70;99.90
12315;DHT22;23886;46.614;14.276;2023-04-10T07:16:23;5.90;99.90
12315;DHT22;23886;46.614;14.276;2023-04-10T07:18:50;5.90;99.90
12315;DHT22;23886;46.614;14.276;2023-04-10T07:21:17;6.20;99.90
12315;DHT22;23886;46.614;14.276;2023-04-10T07:23:44;6.00;99.90
12315;DHT22;23886;46.614;14.276;2023-04-10T07:26:13;5.50;99.90
12315;DHT22;23886;46.614;14.276;2023-04-10T07:28:40;5.40;99.90
12315;DHT22;23886;46.614;14.276;2023-04-10T07:31:07;5.70;99.90
12315;DHT22;23886;46.614;14.276;2023-04-10T07:33:35;6.20;99.90
12315;DHT22;23886;46.614;14.276;2023-04-10T07:36:02;6.00;99.90
12315;DHT22;23886;46.614;14.276;2023-04-10T07:38:30;6.30;99.90
12315;DHT22;23886;46.614;14.276;2023-04-10T07:40:58;6.60;99.90
12315;DHT22;23886;46.614;14.276;2023-04-10T07:43:26;6.40;99.90
12315;DHT22;23886;46.614;14.276;2023-04-10T07:45:53;6.10;99.90
12315;DHT22;23886;46.614;14.276;2023-04-10T07:48:20;6.30;99.90
12315;DHT22;23886;46.614;14.276;2023-04-10T07:50:47;6.30;99.90
12315;DHT22;23886;46.614;14.276;2023-04-10T07:53:14;7.00;99.90
12315;DHT22;23886;46.614;14.276;2023-04-10T07:55:43;7.20;99.90
12315;DHT22;23886;46.614;14.276;2023-04-10T07:58:10;7.50;99.90
12315;DHT22;23886;46.614;14.276;2023-04-10T08:00:38;7.40;99.90
12315;DHT22;23886;46.614;14.276;2023-04-10T08:03:05;7.80;99.90
12315;DHT22;23886;46.614;14.276;2023-04-10T08:05:32;7.80;99.90
12315;DHT22;23886;46.614;14.276;2023-04-10T08:07:59;7.80;99.90
12315;DHT22;23886;46.614;14.276;2023-04-10T08:10:27;6.90;99.90
12315;DHT22;23886;46.614;14.276;2023-04-10T08:12:53;7.10;99.90
12315;DHT22;23886;46.614;14.276;2023-04-10T08:15:21;6.90;99.90
12315;DHT22;23886;46.614;14.276;2023-04-10T08:17:49;6.90;99.90
12315;DHT22;23886;46.614;14.276;2023-04-10T08:20:16;6.90;99.90
12315;DHT22;23886;46.614;14.276;2023-04-10T08:22:43;6.90;99.90
12315;DHT22;23886;46.614;14.276;2023-04-10T08:25:10;6.80;99.90
12315;DHT22;23886;46.614;14.276;2023-04-10T08:27:37;6.60;99.90
12315;DHT22;23886;46.614;14.276;2023-04-10T08:30:05;7.00;99.90
12315;DHT22;23886;46.614;14.276;2023-04-10T08:32:32;7.00;99.90
12315;DHT22;23886;46.614;14.276;2023-04-10T08:35:00;6.90;99.90
12315;DHT22;23886;46.614;14.276;2023-04-10T08:37:27;7.00;99.90
12315;DHT22;23886;46.614;14.276;2023-04-10T08:39:54;7.70;99.90
12315;DHT22;23886;46.614;14.276;2023-04-10T08:42:21;7.20;99.90
12315;DHT22;23886;46.614;14.276;2023-04-10T08:44:49;7.20;99.90
12315;DHT22;23886;46.614;14.276;2023-04-10T08:47:20;7.10;99.90
12315;DHT22;23886;46.614;14.276;2023-04-10T08:49:53;7.30;99.90
12315;DHT22;23886;46.614;14.276;2023-04-10T08:52:23;7.50;99.90
12315;DHT22;23886;46.614;14.276;2023-04-10T08:54:53;7.30;99.90
12315;DHT22;23886;46.614;14.276;2023-04-10T08:57:21;7.30;99.90
12315;DHT22;23886;46.614;14.276;2023-04-10T08:59:49;7.30;99.90
12315;DHT22;23886;46.614;14.276;2023-04-10T09:02:17;7.20;99.90
12315;DHT22;23886;46.614;14.276;2023-04-10T09:04:47;7.40;99.90
12315;DHT22;23886;46.614;14.276;2023-04-10T09:07:15;7.60;99.90
12315;DHT22;23886;46.614;14.276;2023-04-10T09:09:43;7.80;99.90
12315;DHT22;23886;46.614;14.276;2023-04-10T09:12:12;7.20;99.90
12315;DHT22;23886;46.614;14.276;2023-04-10T09:14:40;7.20;99.90
12315;DHT22;23886;46.614;14.276;2023-04-10T09:17:13;7.50;99.90
12315;DHT22;23886;46.614;14.276;2023-04-10T09:19:41;7.70;99.90
12315;DHT22;23886;46.614;14.276;2023-04-10T09:22:08;7.70;99.90
12315;DHT22;23886;46.614;14.276;2023-04-10T09:24:36;7.70;99.90
12315;DHT22;23886;46.614;14.276;2023-04-10T09:27:05;8.00;99.90
12315;DHT22;23886;46.614;14.276;2023-04-10T09:29:43;8.30;99.90
12315;DHT22;23886;46.614;14.276;2023-04-10T09:32:11;8.20;99.90
12315;DHT22;23886;46.614;14.276;2023-04-10T09:34:51;8.00;99.90
12315;DHT22;23886;46.614;14.276;2023-04-10T09:37:19;7.80;99.90
12315;DHT22;23886;46.614;14.276;2023-04-10T09:39:47;8.00;99.90
12315;DHT22;23886;46.614;14.276;2023-04-10T09:42:29;8.40;99.90
12315;DHT22;23886;46.614;14.276;2023-04-10T09:44:57;8.80;99.90
12315;DHT22;23886;46.614;14.276;2023-04-10T09:47:24;8.70;99.90
12315;DHT22;23886;46.614;14.276;2023-04-10T09:49:53;8.70;99.90
12315;DHT22;23886;46.614;14.276;2023-04-10T09:52:21;8.70;99.90
12315;DHT22;23886;46.614;14.276;2023-04-10T09:54:50;8.90;99.90
12315;DHT22;23886;46.614;14.276;2023-04-10T09:57:20;9.30;99.90
12315;DHT22;23886;46.614;14.276;2023-04-10T09:59:49;9.30;99.90
12315;DHT22;23886;46.614;14.276;2023-04-10T10:02:18;9.60;99.90
12315;DHT22;23886;46.614;14.276;2023-04-10T10:04:46;9.70;99.90
12315;DHT22;23886;46.614;14.276;2023-04-10T10:07:14;9.90;99.90
12315;DHT22;23886;46.614;14.276;2023-04-10T10:09:42;10.00;99.90
12315;DHT22;23886;46.614;14.276;2023-04-10T10:12:10;10.20;98.70
12315;DHT22;23886;46.614;14.276;2023-04-10T10:14:46;10.40;92.60
12315;DHT22;23886;46.614;14.276;2023-04-10T10:17:17;10.60;92.80
12315;DHT22;23886;46.614;14.276;2023-04-10T10:19:52;10.60;92.10
12315;DHT22;23886;46.614;14.276;2023-04-10T10:22:21;10.80;93.10
12315;DHT22;23886;46.614;14.276;2023-04-10T10:24:52;10.80;88.50
12315;DHT22;23886;46.614;14.276;2023-04-10T10:27:22;10.70;86.40
12315;DHT22;23886;46.614;14.276;2023-04-10T10:29:52;10.80;90.40
12315;DHT22;23886;46.614;14.276;2023-04-10T10:32:20;10.90;90.30
12315;DHT22;23886;46.614;14.276;2023-04-10T10:34:49;11.00;91.10
12315;DHT22;23886;46.614;14.276;2023-04-10T10:37:17;10.90;89.60
12315;DHT22;23886;46.614;14.276;2023-04-10T10:39:52;11.10;91.60
12315;DHT22;23886;46.614;14.276;2023-04-10T10:42:25;11.20;91.70
12315;DHT22;23886;46.614;14.276;2023-04-10T10:45:03;11.30;90.20
12315;DHT22;23886;46.614;14.276;2023-04-10T10:47:32;11.40;91.20
12315;DHT22;23886;46.614;14.276;2023-04-10T10:50:01;11.10;90.70
12315;DHT22;23886;46.614;14.276;2023-04-10T10:52:39;11.00;90.00
12315;DHT22;23886;46.614;14.276;2023-04-10T10:55:32;11.40;92.20
12315;DHT22;23886;46.614;14.276;2023-04-10T10:58:03;11.60;90.30
12315;DHT22;23886;46.614;14.276;2023-04-10T11:03:33;12.00;90.50
12315;DHT22;23886;46.614;14.276;2023-04-10T11:06:02;12.10;90.60
12315;DHT22;23886;46.614;14.276;2023-04-10T11:08:45;12.40;90.50
12315;DHT22;23886;46.614;14.276;2023-04-10T11:11:14;12.30;88.00
12315;DHT22;23886;46.614;14.276;2023-04-10T11:14:11;12.40;87.30
12315;DHT22;23886;46.614;14.276;2023-04-10T11:16:44;12.50;90.30
12315;DHT22;23886;46.614;14.276;2023-04-10T11:19:12;12.70;90.50
12315;DHT22;23886;46.614;14.276;2023-04-10T11:22:03;12.90;90.70
12315;DHT22;23886;46.614;14.276;2023-04-10T11:24:52;12.70;88.60
12315;DHT22;23886;46.614;14.276;2023-04-10T11:27:41;12.80;86.70
12315;DHT22;23886;46.614;14.276;2023-04-10T11:30:28;12.60;89.80
12315;DHT22;23886;46.614;14.276;2023-04-10T11:32:56;12.90;90.80
12315;DHT22;23886;46.614;14.276;2023-04-10T11:35:25;12.90;89.50
12315;DHT22;23886;46.614;14.276;2023-04-10T11:38:14;12.60;86.80
12315;DHT22;23886;46.614;14.276;2023-04-10T11:40:57;13.00;87.90
12315;DHT22;23886;46.614;14.276;2023-04-10T11:43:26;13.00;83.20
12315;DHT22;23886;46.614;14.276;2023-04-10T11:46:04;13.40;81.00
12315;DHT22;23886;46.614;14.276;2023-04-10T11:48:32;13.50;79.80
12315;DHT22;23886;46.614;14.276;2023-04-10T11:51:08;13.10;81.70
12315;DHT22;23886;46.614;14.276;2023-04-10T11:53:35;13.20;83.40
12315;DHT22;23886;46.614;14.276;2023-04-10T11:56:02;13.70;85.60
12315;DHT22;23886;46.614;14.276;2023-04-10T11:58:29;14.00;83.50
12315;DHT22;23886;46.614;14.276;2023-04-10T12:00:59;14.40;84.70
12315;DHT22;23886;46.614;14.276;2023-04-10T12:03:37;14.50;83.00
12315;DHT22;23886;46.614;14.276;2023-04-10T12:06:08;13.80;79.60
12315;DHT22;23886;46.614;14.276;2023-04-10T12:08:37;13.10;82.60
12315;DHT22;23886;46.614;14.276;2023-04-10T12:11:05;12.90;81.30
12315;DHT22;23886;46.614;14.276;2023-04-10T12:13:32;13.40;83.50
12315;DHT22;23886;46.614;14.276;2023-04-10T12:16:00;13.70;82.50
12315;DHT22;23886;46.614;14.276;2023-04-10T12:18:28;14.80;79.40
12315;DHT22;23886;46.614;14.276;2023-04-10T12:20:56;15.20;79.60
12315;DHT22;23886;46.614;14.276;2023-04-10T12:23:28;15.40;76.70
12315;DHT22;23886;46.614;14.276;2023-04-10T12:26:09;16.00;77.80
12315;DHT22;23886;46.614;14.276;2023-04-10T12:28:38;15.70;72.60
12315;DHT22;23886;46.614;14.276;2023-04-10T12:31:05;15.20;73.50
12315;DHT22;23886;46.614;14.276;2023-04-10T12:33:33;15.20;74.70
12315;DHT22;23886;46.614;14.276;2023-04-10T12:36:00;15.80;75.10
12315;DHT22;23886;46.614;14.276;2023-04-10T12:38:41;16.20;74.90
12315;DHT22;23886;46.614;14.276;2023-04-10T12:41:10;16.20;73.90
12315;DHT22;23886;46.614;14.276;2023-04-10T12:43:38;15.80;74.40
12315;DHT22;23886;46.614;14.276;2023-04-10T12:46:07;15.70;74.40
12315;DHT22;23886;46.614;14.276;2023-04-10T12:48:35;16.20;73.70
12315;DHT22;23886;46.614;14.276;2023-04-10T12:51:02;16.70;68.80
12315;DHT22;23886;46.614;14.276;2023-04-10T12:53:30;15.90;74.00
12315;DHT22;23886;46.614;14.276;2023-04-10T12:56:00;16.10;74.80
12315;DHT22;23886;46.614;14.276;2023-04-10T12:58:28;16.70;70.20
12315;DHT22;23886;46.614;14.276;2023-04-10T13:00:57;15.90;71.20
12315;DHT22;23886;46.614;14.276;2023-04-10T13:03:25;16.40;72.00
12315;DHT22;23886;46.614;14.276;2023-04-10T13:05:52;16.40;75.70
12315;DHT22;23886;46.614;14.276;2023-04-10T13:08:19;16.40;72.00
12315;DHT22;23886;46.614;14.276;2023-04-10T13:10:46;16.40;71.30
12315;DHT22;23886;46.614;14.276;2023-04-10T13:13:16;16.60;71.50
12315;DHT22;23886;46.614;14.276;2023-04-10T13:15:43;16.70;71.40
12315;DHT22;23886;46.614;14.276;2023-04-10T13:18:10;15.90;68.80
12315;DHT22;23886;46.614;14.276;2023-04-10T13:20:38;15.60;72.20
12315;DHT22;23886;46.614;14.276;2023-04-10T13:23:05;15.80;70.00
12315;DHT22;23886;46.614;14.276;2023-04-10T13:25:35;16.60;70.70
12315;DHT22;23886;46.614;14.276;2023-04-10T13:28:04;16.80;69.10
12315;DHT22;23886;46.614;14.276;2023-04-10T13:30:36;18.50;69.80
12315;DHT22;23886;46.614;14.276;2023-04-10T13:33:04;18.40;66.90
12315;DHT22;23886;46.614;14.276;2023-04-10T13:35:31;17.60;67.50
12315;DHT22;23886;46.614;14.276;2023-04-10T13:37:58;19.40;67.10
12315;DHT22;23886;46.614;14.276;2023-04-10T13:40:26;19.00;65.40
12315;DHT22;23886;46.614;14.276;2023-04-10T13:42:53;19.40;64.30
12315;DHT22;23886;46.614;14.276;2023-04-10T13:45:20;19.20;62.30
12315;DHT22;23886;46.614;14.276;2023-04-10T13:47:48;18.80;65.00
12315;DHT22;23886;46.614;14.276;2023-04-10T13:50:15;18.10;64.90
12315;DHT22;23886;46.614;14.276;2023-04-10T13:52:42;18.20;63.50
12315;DHT22;23886;46.614;14.276;2023-04-10T13:55:09;17.90;62.50
12315;DHT22;23886;46.614;14.276;2023-04-10T14:00:12;18.10;64.70
12315;DHT22;23886;46.614;14.276;2023-04-10T14:02:39;18.80;64.30
12315;DHT22;23886;46.614;14.276;2023-04-10T14:05:09;21.30;60.50
12315;DHT22;23886;46.614;14.276;2023-04-10T14:07:36;22.30;58.80
12315;DHT22;23886;46.614;14.276;2023-04-10T14:10:03;21.00;60.00
12315;DHT22;23886;46.614;14.276;2023-04-10T14:12:30;20.90;60.00
12315;DHT22;23886;46.614;14.276;2023-04-10T14:14:58;20.20;59.40
12315;DHT22;23886;46.614;14.276;2023-04-10T14:17:25;19.60;61.40
12315;DHT22;23886;46.614;14.276;2023-04-10T14:19:52;18.40;62.70
12315;DHT22;23886;46.614;14.276;2023-04-10T14:22:20;20.80;61.20
12315;DHT22;23886;46.614;14.276;2023-04-10T14:24:48;21.40;57.40
12315;DHT22;23886;46.614;14.276;2023-04-10T14:27:15;22.80;57.70
12315;DHT22;23886;46.614;14.276;2023-04-10T14:29:42;20.90;57.90
12315;DHT22;23886;46.614;14.276;2023-04-10T14:32:09;20.00;58.50
12315;DHT22;23886;46.614;14.276;2023-04-10T14:34:36;20.50;56.70
12315;DHT22;23886;46.614;14.276;2023-04-10T14:37:03;22.20;57.60
12315;DHT22;23886;46.614;14.276;2023-04-10T14:39:31;23.10;56.00
12315;DHT22;23886;46.614;14.276;2023-04-10T14:41:58;23.10;55.50
12315;DHT22;23886;46.614;14.276;2023-04-10T14:44:26;22.80;55.90
12315;DHT22;23886;46.614;14.276;2023-04-10T14:46:53;22.20;54.70
12315;DHT22;23886;46.614;14.276;2023-04-10T14:49:20;21.00;55.00
12315;DHT22;23886;46.614;14.276;2023-04-10T14:51:47;20.20;57.90
12315;DHT22;23886;46.614;14.276;2023-04-10T14:54:15;20.00;55.80
12315;DHT22;23886;46.614;14.276;2023-04-10T14:56:47;20.30;56.50
12315;DHT22;23886;46.614;14.276;2023-04-10T14:59:15;20.30;56.70
12315;DHT22;23886;46.614;14.276;2023-04-10T15:01:42;20.80;55.70
12315;DHT22;23886;46.614;14.276;2023-04-10T15:04:09;20.80;54.50
12315;DHT22;23886;46.614;14.276;2023-04-10T15:06:36;22.30;55.20
12315;DHT22;23886;46.614;14.276;2023-04-10T15:09:03;22.90;51.80
12315;DHT22;23886;46.614;14.276;2023-04-10T15:11:30;22.80;52.90
12315;DHT22;23886;46.614;14.276;2023-04-10T15:13:59;22.40;53.20
12315;DHT22;23886;46.614;14.276;2023-04-10T15:16:27;21.20;52.60
12315;DHT22;23886;46.614;14.276;2023-04-10T15:18:53;21.00;54.20
12315;DHT22;23886;46.614;14.276;2023-04-10T15:21:21;22.50;49.90
12315;DHT22;23886;46.614;14.276;2023-04-10T15:23:48;22.10;50.90
12315;DHT22;23886;46.614;14.276;2023-04-10T15:26:16;22.70;51.50
12315;DHT22;23886;46.614;14.276;2023-04-10T15:28:43;23.70;49.00
12315;DHT22;23886;46.614;14.276;2023-04-10T15:31:11;24.10;48.10
12315;DHT22;23886;46.614;14.276;2023-04-10T15:33:38;22.70;50.70
12315;DHT22;23886;46.614;14.276;2023-04-10T15:36:06;21.40;51.20
12315;DHT22;23886;46.614;14.276;2023-04-10T15:38:34;21.10;53.50
12315;DHT22;23886;46.614;14.276;2023-04-10T15:41:07;23.30;49.10